Terminal Aerodrome Forecast
Issued by NWS Shreveport, LA

Home | Current Version | Previous Version | Text Only | Print | Product List | Glossary On
Versions: 1 2 3 4 5 6 7 8 9 10 11 12
000
FTUS44 KSHV 290526
TAFTXK
TAF
KTXK 290526Z 2906/3006 34006KT P6SM SKC
     FM291000 02010KT P6SM SKC
     FM291500 04008G14KT P6SM SKC
     FM292100 36008KT P6SM SKC
     FM300000 36004KT P6SM SKC=

USA.gov is the U.S. government's official web portal to all federal, state and local government web resources and services.